createdAt,value
2017-09-08T00:00:18.657Z,1007.77
2017-09-08T00:01:19.080Z,1007.75
2017-09-08T00:02:19.508Z,1007.75
2017-09-08T00:03:19.991Z,1007.77
2017-09-08T00:04:20.377Z,1007.76
2017-09-08T00:05:20.807Z,1007.77
2017-09-08T00:06:21.241Z,1007.74
2017-09-08T00:07:21.681Z,1007.71
2017-09-08T00:08:22.109Z,1007.77
2017-09-08T00:09:22.539Z,1007.76
2017-09-08T00:10:22.973Z,1007.75
2017-09-08T00:11:23.402Z,1007.70
2017-09-08T00:12:23.835Z,1007.67
2017-09-08T00:13:24.268Z,1007.68
2017-09-08T00:14:24.701Z,1007.71
2017-09-08T00:15:25.134Z,1007.68
2017-09-08T00:16:25.567Z,1007.65
2017-09-08T00:17:25.994Z,1007.67
2017-09-08T00:18:26.432Z,1007.67
2017-09-08T00:19:26.865Z,1007.61
2017-09-08T00:20:27.294Z,1007.65
2017-09-08T00:21:27.726Z,1007.71
2017-09-08T00:22:28.163Z,1007.63
2017-09-08T00:23:28.592Z,1007.63
2017-09-08T00:24:29.028Z,1007.63
2017-09-08T00:25:29.456Z,1007.62
2017-09-08T00:26:29.895Z,1007.65
2017-09-08T00:27:30.322Z,1007.58
2017-09-08T00:28:30.761Z,1007.61
2017-09-08T00:29:31.183Z,1007.58
2017-09-08T00:30:31.620Z,1007.55
2017-09-08T00:31:32.047Z,1007.60
2017-09-08T00:32:32.478Z,1007.57
2017-09-08T00:33:32.911Z,1007.61
2017-09-08T00:34:33.340Z,1007.57
2017-09-08T00:35:33.779Z,1007.57
2017-09-08T00:36:34.209Z,1007.56
2017-09-08T00:37:34.648Z,1007.53
2017-09-08T00:38:35.074Z,1007.55
2017-09-08T00:39:35.501Z,1007.50
2017-09-08T00:40:35.941Z,1007.52
2017-09-08T00:41:36.369Z,1007.52
2017-09-08T00:42:36.794Z,1007.51
2017-09-08T00:43:37.233Z,1007.53
2017-09-08T00:44:37.663Z,1007.53
2017-09-08T00:45:38.094Z,1007.58
2017-09-08T00:46:38.531Z,1007.58
2017-09-08T00:47:38.968Z,1007.61
2017-09-08T00:48:39.391Z,1007.65
2017-09-08T00:49:39.824Z,1007.60
2017-09-08T00:50:40.253Z,1007.57
2017-09-08T00:51:40.695Z,1007.59
2017-09-08T00:52:41.116Z,1007.56
2017-09-08T00:53:41.563Z,1007.58
2017-09-08T00:54:41.977Z,1007.57
2017-09-08T00:55:42.415Z,1007.58
2017-09-08T00:56:42.841Z,1007.56
2017-09-08T00:57:43.273Z,1007.54
2017-09-08T00:58:43.706Z,1007.52
2017-09-08T00:59:44.134Z,1007.56
2017-09-08T01:00:44.569Z,1007.54
2017-09-08T01:01:44.999Z,1007.55
2017-09-08T01:02:45.430Z,1007.50
2017-09-08T01:03:45.864Z,1007.48
2017-09-08T01:04:46.298Z,1007.48
2017-09-08T01:05:46.727Z,1007.48
2017-09-08T01:06:47.152Z,1007.47
2017-09-08T01:07:47.586Z,1007.44
2017-09-08T01:08:48.021Z,1007.41
2017-09-08T01:09:48.455Z,1007.39
2017-09-08T01:10:48.881Z,1007.36
2017-09-08T01:11:49.377Z,1007.32
2017-09-08T01:12:49.747Z,1007.30
2017-09-08T01:13:50.174Z,1007.28
2017-09-08T01:14:50.609Z,1007.26
2017-09-08T01:15:51.040Z,1007.25
2017-09-08T01:16:51.474Z,1007.24
2017-09-08T01:17:51.908Z,1007.21
2017-09-08T01:18:52.335Z,1007.17
2017-09-08T01:19:52.764Z,1007.19
2017-09-08T01:20:53.285Z,1007.14
2017-09-08T01:21:53.624Z,1007.12
2017-09-08T01:22:54.058Z,1007.09
2017-09-08T01:23:54.492Z,1007.09
2017-09-08T01:24:54.921Z,1007.10
2017-09-08T01:25:55.349Z,1007.07
2017-09-08T01:26:55.780Z,1007.11
2017-09-08T01:27:56.232Z,1007.07
2017-09-08T01:28:56.644Z,1007.05
2017-09-08T01:29:57.075Z,1007.02
2017-09-08T01:30:57.510Z,1007.01
2017-09-08T01:31:57.941Z,1006.98
2017-09-08T01:32:58.371Z,1007.01
2017-09-08T01:33:58.799Z,1007.03
2017-09-08T01:34:59.253Z,1007.04
2017-09-08T01:35:59.665Z,1007.05
2017-09-08T01:37:00.093Z,1007.05
2017-09-08T01:38:00.527Z,1007.04
2017-09-08T01:39:00.955Z,1007.04
2017-09-08T01:40:01.395Z,1007.03
2017-09-08T01:41:01.814Z,1007.00
2017-09-08T01:42:02.260Z,1006.95
2017-09-08T01:43:02.680Z,1006.96
2017-09-08T01:44:03.109Z,1006.95
2017-09-08T01:45:03.548Z,1006.96
2017-09-08T01:46:03.970Z,1006.96
2017-09-08T01:47:04.407Z,1006.94
2017-09-08T01:48:04.834Z,1006.96
2017-09-08T01:49:05.266Z,1006.94
2017-09-08T01:50:05.700Z,1006.94
2017-09-08T01:51:06.126Z,1006.93
2017-09-08T01:52:06.572Z,1006.91
2017-09-08T01:53:06.990Z,1006.87
2017-09-08T01:54:07.428Z,1006.89
2017-09-08T01:55:07.860Z,1006.84
2017-09-08T01:56:08.297Z,1006.85
2017-09-08T01:57:08.718Z,1006.82
2017-09-08T01:58:09.149Z,1006.80
2017-09-08T01:59:09.579Z,1006.89
2017-09-08T02:00:10.014Z,1006.87
2017-09-08T02:01:10.439Z,1006.89
2017-09-08T02:02:10.868Z,1006.89
2017-09-08T02:03:11.299Z,1006.87
2017-09-08T02:04:11.735Z,1006.90
2017-09-08T02:05:12.161Z,1006.89
2017-09-08T02:06:12.604Z,1006.95
2017-09-08T02:07:13.023Z,1006.89
2017-09-08T02:08:13.453Z,1006.90
2017-09-08T02:09:13.882Z,1006.84
2017-09-08T02:10:14.314Z,1006.88
2017-09-08T02:11:14.754Z,1006.85
2017-09-08T02:12:15.184Z,1006.87
2017-09-08T02:13:15.611Z,1006.88
2017-09-08T02:14:16.036Z,1006.87
2017-09-08T02:15:16.470Z,1006.89
2017-09-08T02:16:16.906Z,1006.88
2017-09-08T02:17:17.326Z,1006.85
2017-09-08T02:18:17.762Z,1006.84
2017-09-08T02:19:18.189Z,1006.78
2017-09-08T02:20:18.623Z,1006.74
2017-09-08T02:21:19.062Z,1006.71
2017-09-08T02:22:19.483Z,1006.66
2017-09-08T02:23:19.965Z,1006.67
2017-09-08T02:24:20.346Z,1006.66
2017-09-08T02:25:20.780Z,1006.63
2017-09-08T02:26:21.201Z,1006.67
2017-09-08T02:27:21.665Z,1006.61
2017-09-08T02:28:22.093Z,1006.64
2017-09-08T02:29:22.495Z,1006.58
2017-09-08T02:30:22.926Z,1006.60
2017-09-08T02:31:23.359Z,1006.59
2017-09-08T02:32:23.785Z,1006.58
2017-09-08T02:33:24.220Z,1006.55
2017-09-08T02:34:24.647Z,1006.61
2017-09-08T02:35:25.091Z,1006.59
2017-09-08T02:36:25.516Z,1006.58
2017-09-08T02:37:25.944Z,1006.56
2017-09-08T02:38:26.375Z,1006.55
2017-09-08T02:39:26.806Z,1006.54
2017-09-08T02:40:27.236Z,1006.56
2017-09-08T02:41:27.663Z,1006.57
2017-09-08T02:42:28.097Z,1006.64
2017-09-08T02:43:28.527Z,1006.63
2017-09-08T02:44:28.962Z,1006.66
2017-09-08T02:45:29.389Z,1006.61
2017-09-08T02:46:29.858Z,1006.62
2017-09-08T02:47:30.249Z,1006.57
2017-09-08T02:48:30.704Z,1006.53
2017-09-08T02:49:31.114Z,1006.54
2017-09-08T02:50:31.587Z,1006.47
2017-09-08T02:51:31.976Z,1006.46
2017-09-08T02:52:32.406Z,1006.48
2017-09-08T02:53:32.829Z,1006.53
2017-09-08T02:54:33.266Z,1006.53
2017-09-08T02:55:33.698Z,1006.50
2017-09-08T02:56:34.125Z,1006.52
2017-09-08T02:57:34.560Z,1006.58
2017-09-08T02:58:34.982Z,1006.51
2017-09-08T02:59:35.422Z,1006.53
2017-09-08T03:00:35.846Z,1006.50
2017-09-08T03:01:36.277Z,1006.48
2017-09-08T03:02:36.706Z,1006.51
2017-09-08T03:03:37.158Z,1006.51
2017-09-08T03:04:37.567Z,1006.50
2017-09-08T03:05:37.998Z,1006.52
2017-09-08T03:06:38.435Z,1006.54
2017-09-08T03:07:38.860Z,1006.52
2017-09-08T03:08:39.291Z,1006.49
2017-09-08T03:09:39.721Z,1006.50
2017-09-08T03:10:40.152Z,1006.49
2017-09-08T03:11:40.579Z,1006.48
2017-09-08T03:12:41.027Z,1006.46
2017-09-08T03:13:41.442Z,1006.42
2017-09-08T03:14:41.872Z,1006.44
2017-09-08T03:15:42.312Z,1006.39
2017-09-08T03:16:42.805Z,1006.41
2017-09-08T03:17:43.167Z,1006.37
2017-09-08T03:18:43.596Z,1006.39
2017-09-08T03:19:44.036Z,1006.39
2017-09-08T03:20:44.455Z,1006.35
2017-09-08T03:21:44.888Z,1006.32
2017-09-08T03:22:45.318Z,1006.32
2017-09-08T03:23:45.760Z,1006.30
2017-09-08T03:24:46.178Z,1006.28
2017-09-08T03:25:46.630Z,1006.28
2017-09-08T03:26:47.042Z,1006.28
2017-09-08T03:27:47.472Z,1006.25
2017-09-08T03:28:47.900Z,1006.26
2017-09-08T03:29:48.331Z,1006.26
2017-09-08T03:30:48.765Z,1006.24
2017-09-08T03:31:49.190Z,1006.20
2017-09-08T03:32:49.626Z,1006.19
2017-09-08T03:33:50.051Z,1006.19
2017-09-08T03:34:50.481Z,1006.13
2017-09-08T03:35:50.913Z,1006.12
2017-09-08T03:36:51.343Z,1006.10
2017-09-08T03:37:51.775Z,1006.11
2017-09-08T03:38:52.206Z,1006.10
2017-09-08T03:39:52.644Z,1006.07
2017-09-08T03:40:53.068Z,1006.11
2017-09-08T03:41:53.501Z,1006.12
2017-09-08T03:42:53.929Z,1006.12
2017-09-08T03:43:54.363Z,1006.12
2017-09-08T03:44:54.791Z,1006.11
2017-09-08T03:45:55.222Z,1006.13
2017-09-08T03:46:55.651Z,1006.13
2017-09-08T03:47:56.079Z,1006.07
2017-09-08T03:48:56.514Z,1006.09
2017-09-08T03:49:56.972Z,1006.06
2017-09-08T03:50:57.376Z,1006.05
2017-09-08T03:51:57.806Z,1006.05
2017-09-08T03:52:58.246Z,1006.07
2017-09-08T03:53:58.667Z,1006.08
2017-09-08T03:54:59.097Z,1006.02
2017-09-08T03:55:59.529Z,1006.01
2017-09-08T03:56:59.956Z,1006.02
2017-09-08T03:58:00.391Z,1005.96
2017-09-08T03:59:00.819Z,1005.99
2017-09-08T04:00:01.250Z,1006.02
2017-09-08T04:01:01.681Z,1005.97
2017-09-08T04:02:02.111Z,1005.93
2017-09-08T04:03:02.550Z,1005.94
2017-09-08T04:04:02.977Z,1005.87
2017-09-08T04:05:03.409Z,1005.88
2017-09-08T04:06:03.837Z,1005.85
2017-09-08T04:07:04.268Z,1005.84
2017-09-08T04:08:04.696Z,1005.88
2017-09-08T04:09:05.180Z,1005.88
2017-09-08T04:10:05.564Z,1005.89
2017-09-08T04:11:05.989Z,1005.87
2017-09-08T04:12:06.419Z,1005.87
2017-09-08T04:13:06.855Z,1005.87
2017-09-08T04:14:07.281Z,1005.84
2017-09-08T04:15:07.712Z,1005.83
2017-09-08T04:16:08.143Z,1005.85
2017-09-08T04:17:08.570Z,1005.84
2017-09-08T04:18:09.030Z,1005.82
2017-09-08T04:19:09.438Z,1005.83
2017-09-08T04:20:09.871Z,1005.86
2017-09-08T04:21:10.298Z,1005.84
2017-09-08T04:22:10.732Z,1005.83
2017-09-08T04:23:11.158Z,1005.82
2017-09-08T04:24:11.593Z,1005.83
2017-09-08T04:25:12.042Z,1005.79
2017-09-08T04:26:12.449Z,1005.76
2017-09-08T04:27:12.885Z,1005.75
2017-09-08T04:28:13.313Z,1005.73
2017-09-08T04:29:13.746Z,1005.69
2017-09-08T04:30:14.187Z,1005.71
2017-09-08T04:31:14.605Z,1005.69
2017-09-08T04:32:15.112Z,1005.69
2017-09-08T04:33:15.480Z,1005.69
2017-09-08T04:34:15.896Z,1005.70
2017-09-08T04:35:16.328Z,1005.68
2017-09-08T04:36:16.773Z,1005.73
2017-09-08T04:37:17.196Z,1005.66
2017-09-08T04:38:17.620Z,1005.70
2017-09-08T04:39:18.065Z,1005.68
2017-09-08T04:40:18.485Z,1005.66
2017-09-08T04:41:18.917Z,1005.62
2017-09-08T04:42:19.347Z,1005.65
2017-09-08T04:43:19.780Z,1005.63
2017-09-08T04:44:20.208Z,1005.60
2017-09-08T04:45:20.637Z,1005.60
2017-09-08T04:46:21.082Z,1005.58
2017-09-08T04:47:21.507Z,1005.60
2017-09-08T04:48:21.933Z,1005.55
2017-09-08T04:49:22.365Z,1005.50
2017-09-08T04:50:22.819Z,1005.53
2017-09-08T04:51:23.228Z,1005.55
2017-09-08T04:52:23.656Z,1005.52
2017-09-08T04:53:24.095Z,1005.52
2017-09-08T04:54:24.521Z,1005.52
2017-09-08T04:55:24.950Z,1005.45
2017-09-08T04:56:25.383Z,1005.45
2017-09-08T04:57:25.817Z,1005.45
2017-09-08T04:58:26.247Z,1005.45
2017-09-08T04:59:26.674Z,1005.47
2017-09-08T05:00:27.114Z,1005.41
2017-09-08T05:01:27.537Z,1005.50
2017-09-08T05:02:27.971Z,1005.45
2017-09-08T05:03:28.402Z,1005.46
2017-09-08T05:04:28.854Z,1005.49
2017-09-08T05:05:29.262Z,1005.46
2017-09-08T05:06:29.692Z,1005.41
2017-09-08T05:07:30.155Z,1005.44
2017-09-08T05:08:30.554Z,1005.40
2017-09-08T05:09:30.989Z,1005.48
2017-09-08T05:10:31.415Z,1005.47
2017-09-08T05:11:31.861Z,1005.45
2017-09-08T05:12:32.287Z,1005.47
2017-09-08T05:13:32.709Z,1005.45
2017-09-08T05:14:33.158Z,1005.46
2017-09-08T05:15:33.569Z,1005.45
2017-09-08T05:16:34.017Z,1005.45
2017-09-08T05:17:34.432Z,1005.41
2017-09-08T05:18:34.873Z,1005.45
2017-09-08T05:19:35.297Z,1005.42
2017-09-08T05:20:35.724Z,1005.44
2017-09-08T05:21:36.158Z,1005.40
2017-09-08T05:22:36.653Z,1005.49
2017-09-08T05:23:37.020Z,1005.38
2017-09-08T05:24:37.449Z,1005.36
2017-09-08T05:25:37.886Z,1005.39
2017-09-08T05:26:38.312Z,1005.35
2017-09-08T05:27:38.740Z,1005.36
2017-09-08T05:28:39.176Z,1005.39
2017-09-08T05:29:39.627Z,1005.37
2017-09-08T05:30:40.038Z,1005.35
2017-09-08T05:31:40.463Z,1005.34
2017-09-08T05:32:40.899Z,1005.35
2017-09-08T05:33:41.421Z,1005.34
2017-09-08T05:34:41.760Z,1005.33
2017-09-08T05:35:42.204Z,1005.38
2017-09-08T05:36:42.621Z,1005.34
2017-09-08T05:37:43.054Z,1005.37
2017-09-08T05:38:43.484Z,1005.39
2017-09-08T05:39:43.914Z,1005.32
2017-09-08T05:40:44.344Z,1005.32
2017-09-08T05:41:44.776Z,1005.34
2017-09-08T05:42:45.204Z,1005.32
2017-09-08T05:43:45.636Z,1005.35
2017-09-08T05:44:46.071Z,1005.40
2017-09-08T05:45:46.495Z,1005.40
2017-09-08T05:46:46.928Z,1005.36
2017-09-08T05:47:47.360Z,1005.45
2017-09-08T05:48:47.791Z,1005.41
2017-09-08T05:49:48.234Z,1005.38
2017-09-08T05:50:48.665Z,1005.38
2017-09-08T05:51:49.087Z,1005.35
2017-09-08T05:52:49.517Z,1005.33
2017-09-08T05:53:49.945Z,1005.34
2017-09-08T05:54:50.388Z,1005.36
2017-09-08T05:55:50.857Z,1005.43
2017-09-08T05:56:51.238Z,1005.39
2017-09-08T05:57:51.676Z,1005.40
2017-09-08T05:58:52.151Z,1005.43
2017-09-08T05:59:52.534Z,1005.42
2017-09-08T06:00:52.965Z,1005.44
2017-09-08T06:01:53.398Z,1005.39
2017-09-08T06:02:53.831Z,1005.36
2017-09-08T06:03:54.260Z,1005.35
2017-09-08T06:04:54.697Z,1005.33
2017-09-08T06:05:55.125Z,1005.26
2017-09-08T06:06:55.552Z,1005.29
2017-09-08T06:07:55.984Z,1005.24
2017-09-08T06:08:56.416Z,1005.23
2017-09-08T06:09:56.853Z,1005.16
2017-09-08T06:10:57.282Z,1005.11
2017-09-08T06:11:57.715Z,1005.11
2017-09-08T06:12:58.145Z,1005.08
2017-09-08T06:13:58.577Z,1005.07
2017-09-08T06:14:59.013Z,1005.08
2017-09-08T06:15:59.434Z,1005.04
2017-09-08T06:16:59.867Z,1005.00
2017-09-08T06:18:00.300Z,1005.01
2017-09-08T06:19:00.733Z,1004.98
2017-09-08T06:20:01.160Z,1004.93
2017-09-08T06:21:01.597Z,1004.94
2017-09-08T06:22:02.209Z,1004.92
2017-09-08T06:23:02.449Z,1004.86
2017-09-08T06:24:02.889Z,1004.88
2017-09-08T06:25:03.331Z,1004.83
2017-09-08T06:26:03.752Z,1004.83
2017-09-08T06:27:04.183Z,1004.82
2017-09-08T06:28:04.628Z,1004.84
2017-09-08T06:29:05.047Z,1004.84
2017-09-08T06:30:05.485Z,1004.83
2017-09-08T06:31:05.911Z,1004.88
2017-09-08T06:32:06.340Z,1004.90
2017-09-08T06:33:06.773Z,1004.90
2017-09-08T06:34:07.208Z,1004.92
2017-09-08T06:35:07.636Z,1004.93
2017-09-08T06:36:08.070Z,1004.93
2017-09-08T06:37:08.501Z,1004.90
2017-09-08T06:38:08.937Z,1004.82
2017-09-08T06:39:09.368Z,1004.87
2017-09-08T06:40:09.795Z,1004.81
2017-09-08T06:41:10.228Z,1004.80
2017-09-08T06:42:10.671Z,1004.83
2017-09-08T06:43:11.098Z,1004.82
2017-09-08T06:44:11.529Z,1004.81
2017-09-08T06:45:11.994Z,1004.79
2017-09-08T06:46:12.402Z,1004.71
2017-09-08T06:47:12.831Z,1004.70
2017-09-08T06:48:13.260Z,1004.69
2017-09-08T06:49:13.698Z,1004.69
2017-09-08T06:50:14.135Z,1004.71
2017-09-08T06:51:14.556Z,1004.72
2017-09-08T06:52:14.995Z,1004.72
2017-09-08T06:53:15.422Z,1004.68
2017-09-08T06:54:15.856Z,1004.72
2017-09-08T06:55:16.298Z,1004.69
2017-09-08T06:56:16.727Z,1004.72
2017-09-08T06:57:17.160Z,1004.74
2017-09-08T06:58:17.589Z,1004.73
2017-09-08T06:59:18.028Z,1004.71
2017-09-08T07:00:18.453Z,1004.64
2017-09-08T07:01:18.889Z,1004.62
2017-09-08T07:02:19.332Z,1004.56
2017-09-08T07:03:19.753Z,1004.58
2017-09-08T07:04:20.190Z,1004.61
2017-09-08T07:05:20.623Z,1004.59
2017-09-08T07:06:21.056Z,1004.58
2017-09-08T07:07:21.496Z,1004.57
2017-09-08T07:08:21.919Z,1004.63
2017-09-08T07:09:22.361Z,1004.64
2017-09-08T07:10:22.784Z,1004.61
2017-09-08T07:11:23.221Z,1004.64
2017-09-08T07:12:23.652Z,1004.59
2017-09-08T07:13:24.086Z,1004.60
2017-09-08T07:14:24.537Z,1004.55
2017-09-08T07:15:24.952Z,1004.51
2017-09-08T07:16:25.386Z,1004.45
2017-09-08T07:17:25.828Z,1004.45
2017-09-08T07:18:26.255Z,1004.50
2017-09-08T07:19:26.705Z,1004.48
2017-09-08T07:20:27.125Z,1004.47
2017-09-08T07:21:27.626Z,1004.50
2017-09-08T07:22:27.992Z,1004.48
2017-09-08T07:23:28.439Z,1004.45
2017-09-08T07:24:28.858Z,1004.46
2017-09-08T07:25:29.294Z,1004.51
2017-09-08T07:26:29.729Z,1004.53
2017-09-08T07:27:30.165Z,1004.48
2017-09-08T07:28:30.591Z,1004.45
2017-09-08T07:29:31.027Z,1004.47
2017-09-08T07:30:31.524Z,1004.47
2017-09-08T07:31:31.897Z,1004.51
2017-09-08T07:32:32.335Z,1004.51
2017-09-08T07:33:32.774Z,1004.52
2017-09-08T07:34:33.211Z,1004.47
2017-09-08T07:35:33.634Z,1004.45
2017-09-08T07:36:34.067Z,1004.46
2017-09-08T07:37:34.507Z,1004.44
2017-09-08T07:38:35.047Z,1004.47
2017-09-08T07:39:35.365Z,1004.37
2017-09-08T07:40:35.812Z,1004.45
2017-09-08T07:41:36.280Z,1004.47
2017-09-08T07:42:36.704Z,1004.47
2017-09-08T07:43:37.180Z,1004.38
2017-09-08T07:44:37.549Z,1004.45
2017-09-08T07:45:38.029Z,1004.48
2017-09-08T07:46:38.418Z,1004.48
2017-09-08T07:47:38.931Z,1004.44
2017-09-08T07:48:39.280Z,1004.44
2017-09-08T07:49:39.728Z,1004.50
2017-09-08T07:50:40.157Z,1004.45
2017-09-08T07:51:40.611Z,1004.38
2017-09-08T07:52:41.026Z,1004.34
2017-09-08T07:53:41.469Z,1004.37
2017-09-08T07:54:41.903Z,1004.38
2017-09-08T07:55:42.335Z,1004.40
2017-09-08T07:56:42.798Z,1004.36
2017-09-08T07:57:43.207Z,1004.31
2017-09-08T07:58:43.646Z,1004.38
2017-09-08T07:59:44.087Z,1004.34
2017-09-08T08:00:44.519Z,1004.39
2017-09-08T08:01:44.961Z,1004.30
2017-09-08T08:02:45.385Z,1004.33
2017-09-08T08:03:45.821Z,1004.32
2017-09-08T08:04:46.259Z,1004.33
2017-09-08T08:05:46.709Z,1004.29
2017-09-08T08:06:47.129Z,1004.30
2017-09-08T08:07:47.575Z,1004.32
2017-09-08T08:08:48.013Z,1004.26
2017-09-08T08:09:48.448Z,1004.28
2017-09-08T08:10:48.871Z,1004.18
2017-09-08T08:11:49.313Z,1004.23
2017-09-08T08:12:49.755Z,1004.24
2017-09-08T08:13:50.187Z,1004.24
2017-09-08T08:14:50.628Z,1004.19
2017-09-08T08:15:51.060Z,1004.19
2017-09-08T08:16:51.499Z,1004.15
2017-09-08T08:17:51.933Z,1004.21
2017-09-08T08:18:52.370Z,1004.23
2017-09-08T08:19:52.810Z,1004.15
2017-09-08T08:20:53.250Z,1004.16
2017-09-08T08:21:53.749Z,1004.11
2017-09-08T08:22:54.124Z,1004.13
2017-09-08T08:23:54.560Z,1004.08
2017-09-08T08:24:54.995Z,1004.07
2017-09-08T08:25:55.446Z,1004.07
2017-09-08T08:26:55.872Z,1004.03
2017-09-08T08:27:56.307Z,1004.07
2017-09-08T08:28:56.767Z,1004.07
2017-09-08T08:29:57.188Z,1004.04
2017-09-08T08:30:57.629Z,1004.02
2017-09-08T08:31:58.058Z,1004.05
2017-09-08T08:32:58.497Z,1004.01
2017-09-08T08:33:58.932Z,1004.03
2017-09-08T08:34:59.371Z,1003.99
2017-09-08T08:35:59.823Z,1003.97
2017-09-08T08:37:00.245Z,1003.99
2017-09-08T08:38:00.684Z,1004.00
2017-09-08T08:39:01.134Z,1003.96
2017-09-08T08:40:01.558Z,1003.98
2017-09-08T08:41:01.998Z,1003.92
2017-09-08T08:42:02.430Z,1003.90
2017-09-08T08:43:02.870Z,1003.95
2017-09-08T08:44:03.314Z,1003.91
2017-09-08T08:45:03.743Z,1003.90
2017-09-08T08:46:04.183Z,1003.86
2017-09-08T08:47:04.614Z,1003.86
2017-09-08T08:48:05.056Z,1003.89
2017-09-08T08:49:05.496Z,1003.84
2017-09-08T08:50:05.925Z,1003.81
2017-09-08T08:51:06.468Z,1003.82
2017-09-08T08:52:06.861Z,1003.81
2017-09-08T08:53:07.237Z,1003.84
2017-09-08T08:54:07.673Z,1003.82
2017-09-08T08:55:08.201Z,1003.82
2017-09-08T08:56:08.537Z,1003.81
2017-09-08T08:57:08.982Z,1003.79
2017-09-08T08:58:09.428Z,1003.81
2017-09-08T08:59:09.857Z,1003.80
2017-09-08T09:00:10.295Z,1003.74
2017-09-08T09:01:10.726Z,1003.76
2017-09-08T09:02:11.169Z,1003.73
2017-09-08T09:03:11.612Z,1003.75
2017-09-08T09:04:12.041Z,1003.68
2017-09-08T09:05:12.472Z,1003.74
2017-09-08T09:06:12.908Z,1003.71
2017-09-08T09:07:13.344Z,1003.69
2017-09-08T09:08:13.781Z,1003.67
2017-09-08T09:09:14.227Z,1003.64
2017-09-08T09:10:14.653Z,1003.61
2017-09-08T09:11:15.089Z,1003.64
2017-09-08T09:12:15.526Z,1003.58
2017-09-08T09:13:15.963Z,1003.62
2017-09-08T09:14:16.396Z,1003.62
2017-09-08T09:15:16.833Z,1003.57
2017-09-08T09:16:17.265Z,1003.56
2017-09-08T09:17:17.700Z,1003.56
2017-09-08T09:18:18.140Z,1003.56
2017-09-08T09:19:18.579Z,1003.55
2017-09-08T09:20:19.006Z,1003.52
2017-09-08T09:21:19.444Z,1003.50
2017-09-08T09:22:19.880Z,1003.49
2017-09-08T09:23:20.317Z,1003.53
2017-09-08T09:24:20.750Z,1003.51
2017-09-08T09:25:21.190Z,1003.51
2017-09-08T09:26:21.624Z,1003.52
2017-09-08T09:27:22.059Z,1003.49
2017-09-08T09:28:22.500Z,1003.44
2017-09-08T09:29:22.938Z,1003.48
2017-09-08T09:30:23.365Z,1003.46
2017-09-08T09:31:23.806Z,1003.46
2017-09-08T09:32:24.305Z,1003.40
2017-09-08T09:33:24.679Z,1003.46
2017-09-08T09:34:25.115Z,1003.44
2017-09-08T09:35:25.551Z,1003.40
2017-09-08T09:36:25.976Z,1003.41
2017-09-08T09:37:26.418Z,1003.39
2017-09-08T09:38:26.851Z,1003.39
2017-09-08T09:39:27.294Z,1003.38
2017-09-08T09:40:27.721Z,1003.35
2017-09-08T09:41:28.156Z,1003.35
2017-09-08T09:42:28.597Z,1003.37
2017-09-08T09:43:29.030Z,1003.31
2017-09-08T09:44:29.467Z,1003.28
2017-09-08T09:45:29.914Z,1003.29
2017-09-08T09:46:30.338Z,1003.29
2017-09-08T09:47:30.777Z,1003.26
2017-09-08T09:48:31.210Z,1003.29
2017-09-08T09:49:31.648Z,1003.29
2017-09-08T09:50:32.082Z,1003.27
2017-09-08T09:51:32.520Z,1003.28
2017-09-08T09:52:32.959Z,1003.21
2017-09-08T09:53:33.394Z,1003.18
2017-09-08T09:54:33.824Z,1003.21
2017-09-08T09:55:34.268Z,1003.20
2017-09-08T09:56:34.705Z,1003.21
2017-09-08T09:57:35.136Z,1003.23
2017-09-08T09:58:35.572Z,1003.21
2017-09-08T09:59:36.085Z,1003.20
2017-09-08T10:00:36.443Z,1003.16
2017-09-08T10:01:36.884Z,1003.10
2017-09-08T10:02:37.342Z,1003.10
2017-09-08T10:03:37.755Z,1003.09
2017-09-08T10:04:38.192Z,1003.07
2017-09-08T10:05:38.628Z,1003.05
2017-09-08T10:06:39.066Z,1003.05
2017-09-08T10:07:39.498Z,1003.02
2017-09-08T10:08:39.934Z,1003.04
2017-09-08T10:09:40.374Z,1002.99
2017-09-08T10:10:40.806Z,1002.97
2017-09-08T10:11:41.242Z,1003.00
2017-09-08T10:12:41.680Z,1002.98
2017-09-08T10:13:42.117Z,1002.92
2017-09-08T10:14:42.561Z,1002.96
2017-09-08T10:15:42.988Z,1002.91
2017-09-08T10:16:43.453Z,1002.96
2017-09-08T10:17:43.861Z,1002.96
2017-09-08T10:18:44.302Z,1002.97
2017-09-08T10:19:44.744Z,1002.95
2017-09-08T10:20:45.172Z,1002.96
2017-09-08T10:21:45.605Z,1002.98
2017-09-08T10:22:46.041Z,1002.94
2017-09-08T10:23:46.477Z,1002.91
2017-09-08T10:24:46.916Z,1002.90
2017-09-08T10:25:47.350Z,1002.90
2017-09-08T10:26:47.788Z,1002.93
2017-09-08T10:27:48.226Z,1002.91
2017-09-08T10:28:48.660Z,1002.92
2017-09-08T10:29:49.098Z,1002.89
2017-09-08T10:30:49.543Z,1002.92
2017-09-08T10:31:49.980Z,1002.84
2017-09-08T10:32:50.411Z,1002.87
2017-09-08T10:33:50.847Z,1002.89
2017-09-08T10:34:51.292Z,1002.92
2017-09-08T10:35:51.729Z,1002.92
2017-09-08T10:36:52.160Z,1002.95
2017-09-08T10:37:52.599Z,1002.86
2017-09-08T10:38:53.036Z,1002.90
2017-09-08T10:39:53.486Z,1002.90
2017-09-08T10:40:53.920Z,1002.94
2017-09-08T10:41:54.360Z,1002.90
2017-09-08T10:42:54.784Z,1002.87
2017-09-08T10:43:55.225Z,1002.91
2017-09-08T10:44:55.661Z,1002.85
2017-09-08T10:45:56.102Z,1002.86
2017-09-08T10:46:56.536Z,1002.85
2017-09-08T10:47:57.006Z,1002.87
2017-09-08T10:48:57.414Z,1002.88
2017-09-08T10:49:57.860Z,1002.86
2017-09-08T10:50:58.286Z,1002.90
2017-09-08T10:51:58.727Z,1002.86
2017-09-08T10:52:59.165Z,1002.88
2017-09-08T10:53:59.601Z,1002.84
2017-09-08T10:55:00.046Z,1002.86
2017-09-08T10:56:00.561Z,1002.84
2017-09-08T10:57:00.918Z,1002.81
2017-09-08T10:58:01.369Z,1002.82
2017-09-08T10:59:01.792Z,1002.84
2017-09-08T11:00:02.281Z,1002.80
2017-09-08T11:01:02.703Z,1002.85
2017-09-08T11:02:03.108Z,1002.79
2017-09-08T11:03:03.547Z,1002.80
2017-09-08T11:04:03.985Z,1002.82
2017-09-08T11:05:04.424Z,1002.81
2017-09-08T11:06:04.862Z,1002.87
2017-09-08T11:07:05.299Z,1002.82
2017-09-08T11:08:05.798Z,1002.85
2017-09-08T11:09:06.177Z,1002.83
2017-09-08T11:10:06.617Z,1002.83
2017-09-08T11:11:07.054Z,1002.82
2017-09-08T11:12:07.491Z,1002.84
2017-09-08T11:13:07.932Z,1002.80
2017-09-08T11:14:08.370Z,1002.83
2017-09-08T11:15:08.809Z,1002.83
2017-09-08T11:16:09.249Z,1002.79
2017-09-08T11:17:09.688Z,1002.78
2017-09-08T11:18:10.124Z,1002.81
2017-09-08T11:19:10.567Z,1002.79
2017-09-08T11:20:11.004Z,1002.74
2017-09-08T11:21:11.443Z,1002.78
2017-09-08T11:22:11.900Z,1002.79
2017-09-08T11:23:12.324Z,1002.78
2017-09-08T11:24:12.762Z,1002.79
2017-09-08T11:25:13.201Z,1002.80
2017-09-08T11:26:13.639Z,1002.81
2017-09-08T11:27:14.081Z,1002.78
2017-09-08T11:28:14.521Z,1002.85
2017-09-08T11:29:14.963Z,1002.84
2017-09-08T11:30:15.423Z,1002.84
2017-09-08T11:31:15.847Z,1002.86
2017-09-08T11:32:16.277Z,1002.83
2017-09-08T11:33:16.718Z,1002.79
2017-09-08T11:34:17.156Z,1002.65
2017-09-08T11:35:17.597Z,1002.80
2017-09-08T11:36:18.038Z,1002.83
2017-09-08T11:37:18.482Z,1002.83
2017-09-08T11:38:18.920Z,1002.79
2017-09-08T11:39:19.364Z,1002.81
2017-09-08T11:40:19.796Z,1002.76
2017-09-08T11:41:20.237Z,1002.75
2017-09-08T11:42:20.675Z,1002.74
2017-09-08T11:43:21.120Z,1002.76
2017-09-08T11:44:21.555Z,1002.77
2017-09-08T11:45:21.993Z,1002.79
2017-09-08T11:46:22.432Z,1002.81
2017-09-08T11:47:22.875Z,1002.77
2017-09-08T11:48:23.319Z,1002.76
2017-09-08T11:49:23.754Z,1002.77
2017-09-08T11:50:24.193Z,1002.79
2017-09-08T11:51:24.637Z,1002.80
2017-09-08T11:52:25.081Z,1002.79
2017-09-08T11:53:25.522Z,1002.73
2017-09-08T11:54:25.959Z,1002.87
2017-09-08T11:55:26.395Z,1002.77
2017-09-08T11:56:26.833Z,1002.86
2017-09-08T11:57:27.286Z,1002.79
2017-09-08T11:58:27.819Z,1002.79
2017-09-08T11:59:28.189Z,1002.78
2017-09-08T12:00:28.598Z,1002.77
2017-09-08T12:01:29.039Z,1002.86
2017-09-08T12:02:29.473Z,1002.81
2017-09-08T12:03:29.917Z,1002.80
2017-09-08T12:04:30.354Z,1002.72
2017-09-08T12:05:30.806Z,1002.71
2017-09-08T12:06:31.233Z,1002.71
2017-09-08T12:07:31.685Z,1002.75
2017-09-08T12:08:32.118Z,1002.75
2017-09-08T12:09:32.622Z,1002.72
2017-09-08T12:10:33.002Z,1002.67